Terminal Aerodrome Forecast
Issued by NWS

Home | Current Version | Previous Version | Text Only | Print | Product List | Glossary On
Versions: 1 2 3 4 5 6 7 8 9 10 11 12 13
574
FTUS45 KFGZ 121131
TAFPRC
TAF
KPRC 121131Z 1212/1312 19007KT P6SM SKC
     FM121500 VRB05KT P6SM SKC
     FM130200 19006KT P6SM SKC=

USA.gov is the U.S. government's official web portal to all federal, state and local government web resources and services.